sensor_id;sensor_type;location;lat;lon;timestamp;P1;durP1;ratioP1;P2;durP2;ratioP2
2706;SDS011;7819;48.046;7.642;2023-03-12T00:02:16;11.93;;;7.53;;
2706;SDS011;7819;48.046;7.642;2023-03-12T00:04:41;8.00;;;6.77;;
2706;SDS011;7819;48.046;7.642;2023-03-12T00:07:06;4.73;;;3.77;;
2706;SDS011;7819;48.046;7.642;2023-03-12T00:09:36;8.27;;;5.03;;
2706;SDS011;7819;48.046;7.642;2023-03-12T00:12:02;19.07;;;12.60;;
2706;SDS011;7819;48.046;7.642;2023-03-12T00:14:27;16.17;;;10.30;;
2706;SDS011;7819;48.046;7.642;2023-03-12T00:16:52;11.50;;;8.33;;
2706;SDS011;7819;48.046;7.642;2023-03-12T00:19:19;13.90;;;8.33;;
2706;SDS011;7819;48.046;7.642;2023-03-12T00:21:45;14.23;;;9.40;;
2706;SDS011;7819;48.046;7.642;2023-03-12T00:24:10;5.90;;;5.23;;
2706;SDS011;7819;48.046;7.642;2023-03-12T00:26:35;9.07;;;5.90;;
2706;SDS011;7819;48.046;7.642;2023-03-12T00:29:00;10.43;;;6.83;;
2706;SDS011;7819;48.046;7.642;2023-03-12T00:31:27;7.40;;;4.67;;
2706;SDS011;7819;48.046;7.642;2023-03-12T00:33:53;7.93;;;5.70;;
2706;SDS011;7819;48.046;7.642;2023-03-12T00:36:19;8.47;;;6.00;;
2706;SDS011;7819;48.046;7.642;2023-03-12T00:38:45;6.70;;;5.53;;
2706;SDS011;7819;48.046;7.642;2023-03-12T00:41:10;5.87;;;5.27;;
2706;SDS011;7819;48.046;7.642;2023-03-12T00:43:36;5.80;;;4.77;;
2706;SDS011;7819;48.046;7.642;2023-03-12T00:46:01;8.50;;;6.50;;
2706;SDS011;7819;48.046;7.642;2023-03-12T00:48:26;6.70;;;6.00;;
2706;SDS011;7819;48.046;7.642;2023-03-12T00:50:51;8.77;;;5.63;;
2706;SDS011;7819;48.046;7.642;2023-03-12T00:53:17;5.13;;;4.50;;
2706;SDS011;7819;48.046;7.642;2023-03-12T00:55:42;25.70;;;15.23;;
2706;SDS011;7819;48.046;7.642;2023-03-12T00:58:07;7.13;;;5.50;;
2706;SDS011;7819;48.046;7.642;2023-03-12T01:00:32;10.93;;;6.40;;
2706;SDS011;7819;48.046;7.642;2023-03-12T01:02:58;6.27;;;4.90;;
2706;SDS011;7819;48.046;7.642;2023-03-12T01:05:23;5.90;;;5.30;;
2706;SDS011;7819;48.046;7.642;2023-03-12T01:07:48;15.93;;;10.33;;
2706;SDS011;7819;48.046;7.642;2023-03-12T01:10:15;17.33;;;10.50;;
2706;SDS011;7819;48.046;7.642;2023-03-12T01:12:41;8.60;;;6.40;;
2706;SDS011;7819;48.046;7.642;2023-03-12T01:15:06;9.87;;;7.07;;
2706;SDS011;7819;48.046;7.642;2023-03-12T01:17:32;13.83;;;8.83;;
2706;SDS011;7819;48.046;7.642;2023-03-12T01:19:57;10.83;;;7.60;;
2706;SDS011;7819;48.046;7.642;2023-03-12T01:22:22;8.13;;;6.07;;
2706;SDS011;7819;48.046;7.642;2023-03-12T01:24:47;11.33;;;8.60;;
2706;SDS011;7819;48.046;7.642;2023-03-12T01:27:13;12.73;;;8.33;;
2706;SDS011;7819;48.046;7.642;2023-03-12T01:29:38;10.23;;;6.73;;
2706;SDS011;7819;48.046;7.642;2023-03-12T01:32:03;8.60;;;6.47;;
2706;SDS011;7819;48.046;7.642;2023-03-12T01:34:30;8.83;;;6.27;;
2706;SDS011;7819;48.046;7.642;2023-03-12T01:36:57;8.23;;;6.07;;
2706;SDS011;7819;48.046;7.642;2023-03-12T01:39:22;7.27;;;5.80;;
2706;SDS011;7819;48.046;7.642;2023-03-12T01:41:49;6.03;;;4.90;;
2706;SDS011;7819;48.046;7.642;2023-03-12T01:44:14;5.77;;;5.10;;
2706;SDS011;7819;48.046;7.642;2023-03-12T01:46:40;9.77;;;5.00;;
2706;SDS011;7819;48.046;7.642;2023-03-12T01:49:12;6.90;;;5.50;;
2706;SDS011;7819;48.046;7.642;2023-03-12T01:51:42;6.80;;;5.17;;
2706;SDS011;7819;48.046;7.642;2023-03-12T01:54:14;6.03;;;5.07;;
2706;SDS011;7819;48.046;7.642;2023-03-12T01:56:40;5.17;;;4.63;;
2706;SDS011;7819;48.046;7.642;2023-03-12T01:59:11;6.23;;;4.80;;
2706;SDS011;7819;48.046;7.642;2023-03-12T02:01:37;5.47;;;4.20;;
2706;SDS011;7819;48.046;7.642;2023-03-12T02:04:03;4.67;;;4.27;;
2706;SDS011;7819;48.046;7.642;2023-03-12T02:06:32;4.93;;;4.50;;
2706;SDS011;7819;48.046;7.642;2023-03-12T02:08:58;5.50;;;4.73;;
2706;SDS011;7819;48.046;7.642;2023-03-12T02:11:25;7.70;;;5.73;;
2706;SDS011;7819;48.046;7.642;2023-03-12T02:13:50;7.50;;;4.70;;
2706;SDS011;7819;48.046;7.642;2023-03-12T02:16:15;5.30;;;4.40;;
2706;SDS011;7819;48.046;7.642;2023-03-12T02:18:40;7.33;;;5.53;;
2706;SDS011;7819;48.046;7.642;2023-03-12T02:21:20;6.30;;;5.67;;
2706;SDS011;7819;48.046;7.642;2023-03-12T02:26:14;5.20;;;4.30;;
2706;SDS011;7819;48.046;7.642;2023-03-12T02:28:40;5.00;;;4.60;;
2706;SDS011;7819;48.046;7.642;2023-03-12T02:31:08;6.97;;;5.50;;
2706;SDS011;7819;48.046;7.642;2023-03-12T02:33:35;9.30;;;5.80;;
2706;SDS011;7819;48.046;7.642;2023-03-12T02:36:00;8.17;;;4.90;;
2706;SDS011;7819;48.046;7.642;2023-03-12T02:40:54;5.87;;;4.90;;
2706;SDS011;7819;48.046;7.642;2023-03-12T02:43:20;6.83;;;5.10;;
2706;SDS011;7819;48.046;7.642;2023-03-12T02:45:46;6.03;;;4.63;;
2706;SDS011;7819;48.046;7.642;2023-03-12T02:48:11;9.53;;;5.43;;
2706;SDS011;7819;48.046;7.642;2023-03-12T02:50:36;5.90;;;5.30;;
2706;SDS011;7819;48.046;7.642;2023-03-12T02:53:02;7.50;;;4.90;;
2706;SDS011;7819;48.046;7.642;2023-03-12T02:55:27;7.47;;;5.47;;
2706;SDS011;7819;48.046;7.642;2023-03-12T02:57:52;6.67;;;4.63;;
2706;SDS011;7819;48.046;7.642;2023-03-12T03:00:17;6.20;;;5.30;;
2706;SDS011;7819;48.046;7.642;2023-03-12T03:02:43;5.23;;;4.60;;
2706;SDS011;7819;48.046;7.642;2023-03-12T03:05:08;6.60;;;5.17;;
2706;SDS011;7819;48.046;7.642;2023-03-12T03:07:34;4.67;;;4.23;;
2706;SDS011;7819;48.046;7.642;2023-03-12T03:09:59;5.40;;;4.90;;
2706;SDS011;7819;48.046;7.642;2023-03-12T03:12:28;7.07;;;4.70;;
2706;SDS011;7819;48.046;7.642;2023-03-12T03:14:53;5.43;;;3.97;;
2706;SDS011;7819;48.046;7.642;2023-03-12T03:17:18;5.30;;;4.10;;
2706;SDS011;7819;48.046;7.642;2023-03-12T03:19:44;6.50;;;4.20;;
2706;SDS011;7819;48.046;7.642;2023-03-12T03:22:09;6.33;;;4.20;;
2706;SDS011;7819;48.046;7.642;2023-03-12T03:24:34;4.40;;;3.93;;
2706;SDS011;7819;48.046;7.642;2023-03-12T03:27:00;5.27;;;3.80;;
2706;SDS011;7819;48.046;7.642;2023-03-12T03:29:25;4.60;;;3.77;;
2706;SDS011;7819;48.046;7.642;2023-03-12T03:31:50;4.20;;;3.80;;
2706;SDS011;7819;48.046;7.642;2023-03-12T03:34:15;4.70;;;3.97;;
2706;SDS011;7819;48.046;7.642;2023-03-12T03:36:40;4.00;;;3.40;;
2706;SDS011;7819;48.046;7.642;2023-03-12T03:39:06;5.10;;;4.00;;
2706;SDS011;7819;48.046;7.642;2023-03-12T03:41:31;4.20;;;3.73;;
2706;SDS011;7819;48.046;7.642;2023-03-12T03:43:57;4.60;;;3.70;;
2706;SDS011;7819;48.046;7.642;2023-03-12T03:46:22;4.80;;;3.40;;
2706;SDS011;7819;48.046;7.642;2023-03-12T03:48:48;4.80;;;3.73;;
2706;SDS011;7819;48.046;7.642;2023-03-12T03:51:14;4.23;;;3.80;;
2706;SDS011;7819;48.046;7.642;2023-03-12T03:53:40;4.10;;;3.40;;
2706;SDS011;7819;48.046;7.642;2023-03-12T03:56:09;5.90;;;4.17;;
2706;SDS011;7819;48.046;7.642;2023-03-12T03:58:35;4.40;;;3.80;;
2706;SDS011;7819;48.046;7.642;2023-03-12T04:01:00;4.03;;;3.63;;
2706;SDS011;7819;48.046;7.642;2023-03-12T04:03:26;4.23;;;3.73;;
2706;SDS011;7819;48.046;7.642;2023-03-12T04:05:55;4.27;;;3.87;;
2706;SDS011;7819;48.046;7.642;2023-03-12T04:08:20;4.20;;;3.80;;
2706;SDS011;7819;48.046;7.642;2023-03-12T04:10:45;4.47;;;4.07;;
2706;SDS011;7819;48.046;7.642;2023-03-12T04:13:10;5.63;;;4.13;;
2706;SDS011;7819;48.046;7.642;2023-03-12T04:15:35;5.00;;;4.00;;
2706;SDS011;7819;48.046;7.642;2023-03-12T04:18:01;7.43;;;4.57;;
2706;SDS011;7819;48.046;7.642;2023-03-12T04:20:26;4.90;;;4.27;;
2706;SDS011;7819;48.046;7.642;2023-03-12T04:22:51;5.50;;;4.60;;
2706;SDS011;7819;48.046;7.642;2023-03-12T04:25:16;5.30;;;4.30;;
2706;SDS011;7819;48.046;7.642;2023-03-12T04:27:42;4.67;;;4.27;;
2706;SDS011;7819;48.046;7.642;2023-03-12T04:30:07;5.63;;;4.73;;
2706;SDS011;7819;48.046;7.642;2023-03-12T04:32:33;4.77;;;4.27;;
2706;SDS011;7819;48.046;7.642;2023-03-12T04:34:58;5.90;;;4.90;;
2706;SDS011;7819;48.046;7.642;2023-03-12T04:37:23;7.80;;;5.30;;
2706;SDS011;7819;48.046;7.642;2023-03-12T04:39:48;8.17;;;6.00;;
2706;SDS011;7819;48.046;7.642;2023-03-12T04:42:14;5.33;;;4.83;;
2706;SDS011;7819;48.046;7.642;2023-03-12T04:44:39;7.17;;;4.90;;
2706;SDS011;7819;48.046;7.642;2023-03-12T04:47:05;5.70;;;5.07;;
2706;SDS011;7819;48.046;7.642;2023-03-12T04:49:30;5.53;;;5.00;;
2706;SDS011;7819;48.046;7.642;2023-03-12T04:51:55;5.97;;;5.37;;
2706;SDS011;7819;48.046;7.642;2023-03-12T04:54:20;7.00;;;5.90;;
2706;SDS011;7819;48.046;7.642;2023-03-12T04:56:46;5.73;;;4.70;;
2706;SDS011;7819;48.046;7.642;2023-03-12T04:59:12;6.47;;;5.20;;
2706;SDS011;7819;48.046;7.642;2023-03-12T05:01:37;6.43;;;5.60;;
2706;SDS011;7819;48.046;7.642;2023-03-12T05:04:02;8.13;;;5.20;;
2706;SDS011;7819;48.046;7.642;2023-03-12T05:06:28;5.40;;;4.90;;
2706;SDS011;7819;48.046;7.642;2023-03-12T05:08:53;5.50;;;4.63;;
2706;SDS011;7819;48.046;7.642;2023-03-12T05:11:18;6.60;;;5.70;;
2706;SDS011;7819;48.046;7.642;2023-03-12T05:13:44;5.97;;;5.33;;
2706;SDS011;7819;48.046;7.642;2023-03-12T05:16:09;7.37;;;5.33;;
2706;SDS011;7819;48.046;7.642;2023-03-12T05:18:35;6.40;;;5.80;;
2706;SDS011;7819;48.046;7.642;2023-03-12T05:21:01;8.77;;;6.43;;
2706;SDS011;7819;48.046;7.642;2023-03-12T05:23:27;7.50;;;6.30;;
2706;SDS011;7819;48.046;7.642;2023-03-12T05:25:53;5.80;;;4.93;;
2706;SDS011;7819;48.046;7.642;2023-03-12T05:28:18;5.83;;;4.90;;
2706;SDS011;7819;48.046;7.642;2023-03-12T05:30:44;5.87;;;5.27;;
2706;SDS011;7819;48.046;7.642;2023-03-12T05:33:09;5.03;;;4.60;;
2706;SDS011;7819;48.046;7.642;2023-03-12T05:35:34;6.60;;;5.20;;
2706;SDS011;7819;48.046;7.642;2023-03-12T05:37:59;5.97;;;5.33;;
2706;SDS011;7819;48.046;7.642;2023-03-12T05:40:25;6.37;;;4.83;;
2706;SDS011;7819;48.046;7.642;2023-03-12T05:42:51;6.80;;;5.20;;
2706;SDS011;7819;48.046;7.642;2023-03-12T05:45:16;5.10;;;4.60;;
2706;SDS011;7819;48.046;7.642;2023-03-12T05:47:43;5.77;;;5.17;;
2706;SDS011;7819;48.046;7.642;2023-03-12T05:50:09;5.70;;;4.70;;
2706;SDS011;7819;48.046;7.642;2023-03-12T05:52:35;5.23;;;4.43;;
2706;SDS011;7819;48.046;7.642;2023-03-12T05:55:00;6.20;;;5.63;;
2706;SDS011;7819;48.046;7.642;2023-03-12T05:57:25;5.23;;;4.73;;
2706;SDS011;7819;48.046;7.642;2023-03-12T05:59:50;5.87;;;5.17;;
2706;SDS011;7819;48.046;7.642;2023-03-12T06:02:16;5.60;;;5.00;;
2706;SDS011;7819;48.046;7.642;2023-03-12T06:04:41;5.73;;;5.23;;
2706;SDS011;7819;48.046;7.642;2023-03-12T06:07:06;6.30;;;5.47;;
2706;SDS011;7819;48.046;7.642;2023-03-12T06:09:31;8.30;;;5.73;;
2706;SDS011;7819;48.046;7.642;2023-03-12T06:11:57;6.03;;;5.23;;
2706;SDS011;7819;48.046;7.642;2023-03-12T06:14:22;5.10;;;4.70;;
2706;SDS011;7819;48.046;7.642;2023-03-12T06:16:47;5.50;;;5.00;;
2706;SDS011;7819;48.046;7.642;2023-03-12T06:19:12;6.33;;;5.33;;
2706;SDS011;7819;48.046;7.642;2023-03-12T06:21:38;7.30;;;4.60;;
2706;SDS011;7819;48.046;7.642;2023-03-12T06:24:03;6.20;;;5.10;;
2706;SDS011;7819;48.046;7.642;2023-03-12T06:26:29;6.60;;;5.60;;
2706;SDS011;7819;48.046;7.642;2023-03-12T06:28:54;6.10;;;5.50;;
2706;SDS011;7819;48.046;7.642;2023-03-12T06:31:19;6.13;;;5.40;;
2706;SDS011;7819;48.046;7.642;2023-03-12T06:33:45;6.40;;;5.80;;
2706;SDS011;7819;48.046;7.642;2023-03-12T06:36:11;5.73;;;5.13;;
2706;SDS011;7819;48.046;7.642;2023-03-12T06:38:36;5.10;;;4.60;;
2706;SDS011;7819;48.046;7.642;2023-03-12T06:41:06;7.47;;;5.20;;
2706;SDS011;7819;48.046;7.642;2023-03-12T06:43:33;6.27;;;5.67;;
2706;SDS011;7819;48.046;7.642;2023-03-12T06:45:59;6.10;;;5.50;;
2706;SDS011;7819;48.046;7.642;2023-03-12T06:48:27;7.00;;;5.27;;
2706;SDS011;7819;48.046;7.642;2023-03-12T06:50:52;7.27;;;5.87;;
2706;SDS011;7819;48.046;7.642;2023-03-12T06:53:18;6.63;;;6.00;;
2706;SDS011;7819;48.046;7.642;2023-03-12T06:55:44;6.13;;;5.17;;
2706;SDS011;7819;48.046;7.642;2023-03-12T06:58:09;8.30;;;5.63;;
2706;SDS011;7819;48.046;7.642;2023-03-12T07:00:35;4.60;;;4.17;;
2706;SDS011;7819;48.046;7.642;2023-03-12T07:03:00;5.53;;;5.00;;
2706;SDS011;7819;48.046;7.642;2023-03-12T07:05:25;7.50;;;4.97;;
2706;SDS011;7819;48.046;7.642;2023-03-12T07:07:51;5.63;;;4.57;;
2706;SDS011;7819;48.046;7.642;2023-03-12T07:10:16;6.23;;;5.03;;
2706;SDS011;7819;48.046;7.642;2023-03-12T07:12:42;6.57;;;5.20;;
2706;SDS011;7819;48.046;7.642;2023-03-12T07:15:07;7.30;;;5.77;;
2706;SDS011;7819;48.046;7.642;2023-03-12T07:17:33;4.70;;;4.30;;
2706;SDS011;7819;48.046;7.642;2023-03-12T07:19:58;6.17;;;5.20;;
2706;SDS011;7819;48.046;7.642;2023-03-12T07:22:23;7.23;;;5.00;;
2706;SDS011;7819;48.046;7.642;2023-03-12T07:24:48;5.33;;;4.83;;
2706;SDS011;7819;48.046;7.642;2023-03-12T07:27:15;6.20;;;5.50;;
2706;SDS011;7819;48.046;7.642;2023-03-12T07:29:40;7.13;;;4.80;;
2706;SDS011;7819;48.046;7.642;2023-03-12T07:32:05;5.70;;;5.10;;
2706;SDS011;7819;48.046;7.642;2023-03-12T07:34:30;6.33;;;5.73;;
2706;SDS011;7819;48.046;7.642;2023-03-12T07:36:56;5.70;;;5.10;;
2706;SDS011;7819;48.046;7.642;2023-03-12T07:39:21;5.80;;;5.27;;
2706;SDS011;7819;48.046;7.642;2023-03-12T07:41:46;7.27;;;5.93;;
2706;SDS011;7819;48.046;7.642;2023-03-12T07:44:12;6.80;;;5.23;;
2706;SDS011;7819;48.046;7.642;2023-03-12T07:46:37;6.60;;;5.60;;
2706;SDS011;7819;48.046;7.642;2023-03-12T07:49:02;7.27;;;4.73;;
2706;SDS011;7819;48.046;7.642;2023-03-12T07:51:28;5.90;;;5.37;;
2706;SDS011;7819;48.046;7.642;2023-03-12T07:53:53;5.10;;;4.43;;
2706;SDS011;7819;48.046;7.642;2023-03-12T07:56:18;7.23;;;6.53;;
2706;SDS011;7819;48.046;7.642;2023-03-12T07:58:44;10.97;;;10.10;;
2706;SDS011;7819;48.046;7.642;2023-03-12T08:01:09;17.47;;;12.97;;
2706;SDS011;7819;48.046;7.642;2023-03-12T08:03:34;10.40;;;8.87;;
2706;SDS011;7819;48.046;7.642;2023-03-12T08:06:00;6.93;;;6.10;;
2706;SDS011;7819;48.046;7.642;2023-03-12T08:08:26;8.00;;;7.00;;
2706;SDS011;7819;48.046;7.642;2023-03-12T08:10:52;7.17;;;5.63;;
2706;SDS011;7819;48.046;7.642;2023-03-12T08:13:17;5.70;;;5.20;;
2706;SDS011;7819;48.046;7.642;2023-03-12T08:15:43;7.03;;;6.33;;
2706;SDS011;7819;48.046;7.642;2023-03-12T08:18:08;6.00;;;5.03;;
2706;SDS011;7819;48.046;7.642;2023-03-12T08:20:34;7.53;;;5.20;;
2706;SDS011;7819;48.046;7.642;2023-03-12T08:22:59;5.00;;;4.43;;
2706;SDS011;7819;48.046;7.642;2023-03-12T08:25:24;7.00;;;5.47;;
2706;SDS011;7819;48.046;7.642;2023-03-12T08:27:49;5.57;;;4.57;;
2706;SDS011;7819;48.046;7.642;2023-03-12T08:30:15;5.10;;;4.10;;
2706;SDS011;7819;48.046;7.642;2023-03-12T08:32:40;5.60;;;5.07;;
2706;SDS011;7819;48.046;7.642;2023-03-12T08:35:05;11.83;;;8.07;;
2706;SDS011;7819;48.046;7.642;2023-03-12T08:37:30;7.30;;;6.10;;
2706;SDS011;7819;48.046;7.642;2023-03-12T08:39:56;6.43;;;5.43;;
2706;SDS011;7819;48.046;7.642;2023-03-12T08:42:22;6.20;;;5.37;;
2706;SDS011;7819;48.046;7.642;2023-03-12T08:44:47;5.27;;;4.77;;
2706;SDS011;7819;48.046;7.642;2023-03-12T08:47:12;5.87;;;4.30;;
2706;SDS011;7819;48.046;7.642;2023-03-12T08:49:37;6.90;;;4.80;;
2706;SDS011;7819;48.046;7.642;2023-03-12T08:52:03;4.23;;;3.83;;
2706;SDS011;7819;48.046;7.642;2023-03-12T08:54:28;5.40;;;4.20;;
2706;SDS011;7819;48.046;7.642;2023-03-12T08:56:53;3.23;;;2.93;;
2706;SDS011;7819;48.046;7.642;2023-03-12T08:59:19;4.97;;;3.90;;
2706;SDS011;7819;48.046;7.642;2023-03-12T09:01:44;6.10;;;4.77;;
2706;SDS011;7819;48.046;7.642;2023-03-12T09:04:10;6.10;;;4.40;;
2706;SDS011;7819;48.046;7.642;2023-03-12T09:06:35;5.10;;;3.23;;
2706;SDS011;7819;48.046;7.642;2023-03-12T09:09:01;3.43;;;2.70;;
2706;SDS011;7819;48.046;7.642;2023-03-12T09:11:29;2.80;;;2.37;;
2706;SDS011;7819;48.046;7.642;2023-03-12T09:13:55;2.57;;;2.23;;
2706;SDS011;7819;48.046;7.642;2023-03-12T09:16:20;3.10;;;2.20;;
2706;SDS011;7819;48.046;7.642;2023-03-12T09:18:45;3.00;;;1.90;;
2706;SDS011;7819;48.046;7.642;2023-03-12T09:21:10;2.93;;;2.10;;
2706;SDS011;7819;48.046;7.642;2023-03-12T09:23:35;2.37;;;2.17;;
2706;SDS011;7819;48.046;7.642;2023-03-12T09:26:01;1.87;;;1.50;;
2706;SDS011;7819;48.046;7.642;2023-03-12T09:28:26;1.73;;;1.50;;
2706;SDS011;7819;48.046;7.642;2023-03-12T09:30:51;1.33;;;1.23;;
2706;SDS011;7819;48.046;7.642;2023-03-12T09:33:16;1.20;;;1.07;;
2706;SDS011;7819;48.046;7.642;2023-03-12T09:35:42;1.63;;;1.30;;
2706;SDS011;7819;48.046;7.642;2023-03-12T09:38:10;2.37;;;1.40;;
2706;SDS011;7819;48.046;7.642;2023-03-12T09:40:36;2.07;;;1.60;;
2706;SDS011;7819;48.046;7.642;2023-03-12T09:43:05;1.40;;;1.10;;
2706;SDS011;7819;48.046;7.642;2023-03-12T09:45:35;1.30;;;1.20;;
2706;SDS011;7819;48.046;7.642;2023-03-12T09:48:02;1.27;;;1.17;;
2706;SDS011;7819;48.046;7.642;2023-03-12T09:50:29;1.30;;;1.20;;
2706;SDS011;7819;48.046;7.642;2023-03-12T09:53:02;1.93;;;1.67;;
2706;SDS011;7819;48.046;7.642;2023-03-12T09:55:36;1.83;;;1.57;;
2706;SDS011;7819;48.046;7.642;2023-03-12T09:58:01;2.00;;;1.60;;
2706;SDS011;7819;48.046;7.642;2023-03-12T10:00:29;1.73;;;1.57;;
2706;SDS011;7819;48.046;7.642;2023-03-12T10:08:03;3.40;;;1.70;;
2706;SDS011;7819;48.046;7.642;2023-03-12T10:10:50;2.03;;;1.50;;
2706;SDS011;7819;48.046;7.642;2023-03-12T10:18:37;2.13;;;1.60;;
2706;SDS011;7819;48.046;7.642;2023-03-12T10:21:17;1.50;;;1.37;;
2706;SDS011;7819;48.046;7.642;2023-03-12T10:24:29;1.33;;;1.03;;
2706;SDS011;7819;48.046;7.642;2023-03-12T10:28:58;1.30;;;0.90;;
2706;SDS011;7819;48.046;7.642;2023-03-12T10:31:26;1.30;;;0.90;;
2706;SDS011;7819;48.046;7.642;2023-03-12T10:36:19;2.07;;;1.00;;
2706;SDS011;7819;48.046;7.642;2023-03-12T10:38:45;0.97;;;0.60;;
2706;SDS011;7819;48.046;7.642;2023-03-12T10:41:31;1.30;;;0.70;;
2706;SDS011;7819;48.046;7.642;2023-03-12T10:43:59;1.30;;;0.80;;
2706;SDS011;7819;48.046;7.642;2023-03-12T10:48:50;1.40;;;0.80;;
2706;SDS011;7819;48.046;7.642;2023-03-12T10:51:15;1.27;;;0.60;;
2706;SDS011;7819;48.046;7.642;2023-03-12T10:53:42;0.80;;;0.40;;
2706;SDS011;7819;48.046;7.642;2023-03-12T10:56:18;1.10;;;0.90;;
2706;SDS011;7819;48.046;7.642;2023-03-12T10:58:48;1.50;;;0.60;;
2706;SDS011;7819;48.046;7.642;2023-03-12T11:03:39;2.30;;;1.27;;
2706;SDS011;7819;48.046;7.642;2023-03-12T11:06:04;1.70;;;0.70;;
2706;SDS011;7819;48.046;7.642;2023-03-12T11:08:32;1.87;;;0.70;;
2706;SDS011;7819;48.046;7.642;2023-03-12T11:10:59;1.53;;;0.97;;
2706;SDS011;7819;48.046;7.642;2023-03-12T11:13:37;1.03;;;0.60;;
2706;SDS011;7819;48.046;7.642;2023-03-12T11:18:52;2.40;;;0.70;;
2706;SDS011;7819;48.046;7.642;2023-03-12T11:21:18;2.20;;;0.90;;
2706;SDS011;7819;48.046;7.642;2023-03-12T11:23:45;1.10;;;0.60;;
2706;SDS011;7819;48.046;7.642;2023-03-12T11:26:13;1.10;;;0.60;;
2706;SDS011;7819;48.046;7.642;2023-03-12T11:28:41;2.13;;;0.90;;
2706;SDS011;7819;48.046;7.642;2023-03-12T11:31:14;2.03;;;1.20;;
2706;SDS011;7819;48.046;7.642;2023-03-12T11:33:40;2.70;;;0.90;;
2706;SDS011;7819;48.046;7.642;2023-03-12T11:43:49;2.60;;;1.43;;
2706;SDS011;7819;48.046;7.642;2023-03-12T11:46:25;2.07;;;0.90;;
2706;SDS011;7819;48.046;7.642;2023-03-12T11:51:54;3.23;;;0.87;;
2706;SDS011;7819;48.046;7.642;2023-03-12T11:56:54;2.00;;;0.90;;
2706;SDS011;7819;48.046;7.642;2023-03-12T11:59:27;2.73;;;0.90;;
2706;SDS011;7819;48.046;7.642;2023-03-12T12:04:51;4.27;;;1.40;;
2706;SDS011;7819;48.046;7.642;2023-03-12T12:12:38;4.70;;;0.80;;
2706;SDS011;7819;48.046;7.642;2023-03-12T12:17:44;4.43;;;1.00;;
2706;SDS011;7819;48.046;7.642;2023-03-12T12:30:18;3.13;;;0.77;;
2706;SDS011;7819;48.046;7.642;2023-03-12T12:35:26;4.00;;;1.47;;
2706;SDS011;7819;48.046;7.642;2023-03-12T12:38:03;2.60;;;0.80;;
2706;SDS011;7819;48.046;7.642;2023-03-12T12:40:41;1.90;;;0.93;;
2706;SDS011;7819;48.046;7.642;2023-03-12T12:45:48;2.70;;;1.20;;
2706;SDS011;7819;48.046;7.642;2023-03-12T12:48:20;2.10;;;1.00;;
2706;SDS011;7819;48.046;7.642;2023-03-12T12:50:46;1.40;;;0.90;;
2706;SDS011;7819;48.046;7.642;2023-03-12T13:01:10;3.00;;;0.90;;
2706;SDS011;7819;48.046;7.642;2023-03-12T13:03:37;3.33;;;1.13;;
2706;SDS011;7819;48.046;7.642;2023-03-12T13:06:03;3.47;;;1.07;;
2706;SDS011;7819;48.046;7.642;2023-03-12T13:11:26;1.60;;;0.80;;
2706;SDS011;7819;48.046;7.642;2023-03-12T13:18:56;2.80;;;0.90;;
2706;SDS011;7819;48.046;7.642;2023-03-12T13:21:45;1.63;;;0.80;;
2706;SDS011;7819;48.046;7.642;2023-03-12T13:24:13;1.77;;;0.70;;
2706;SDS011;7819;48.046;7.642;2023-03-12T13:29:18;2.03;;;1.00;;
2706;SDS011;7819;48.046;7.642;2023-03-12T13:31:44;2.33;;;0.90;;
2706;SDS011;7819;48.046;7.642;2023-03-12T13:36:44;6.00;;;1.53;;
2706;SDS011;7819;48.046;7.642;2023-03-12T13:41:53;2.50;;;0.90;;
2706;SDS011;7819;48.046;7.642;2023-03-12T13:52:17;4.40;;;1.47;;
2706;SDS011;7819;48.046;7.642;2023-03-12T13:54:44;3.73;;;1.57;;
2706;SDS011;7819;48.046;7.642;2023-03-12T13:57:11;2.20;;;1.13;;
2706;SDS011;7819;48.046;7.642;2023-03-12T13:59:41;3.07;;;1.10;;
2706;SDS011;7819;48.046;7.642;2023-03-12T14:02:12;1.70;;;0.87;;
2706;SDS011;7819;48.046;7.642;2023-03-12T14:04:40;2.30;;;0.90;;
2706;SDS011;7819;48.046;7.642;2023-03-12T14:12:51;4.50;;;1.47;;
2706;SDS011;7819;48.046;7.642;2023-03-12T14:18:00;2.80;;;1.10;;
2706;SDS011;7819;48.046;7.642;2023-03-12T14:20:27;3.27;;;1.20;;
2706;SDS011;7819;48.046;7.642;2023-03-12T14:22:57;2.60;;;1.23;;
2706;SDS011;7819;48.046;7.642;2023-03-12T14:25:41;5.90;;;1.30;;
2706;SDS011;7819;48.046;7.642;2023-03-12T14:28:12;4.60;;;1.30;;
2706;SDS011;7819;48.046;7.642;2023-03-12T14:33:08;4.83;;;1.53;;
2706;SDS011;7819;48.046;7.642;2023-03-12T14:35:37;3.60;;;1.23;;
2706;SDS011;7819;48.046;7.642;2023-03-12T14:38:05;3.63;;;1.03;;
2706;SDS011;7819;48.046;7.642;2023-03-12T14:43:02;2.13;;;1.20;;
2706;SDS011;7819;48.046;7.642;2023-03-12T14:45:27;4.50;;;1.03;;
2706;SDS011;7819;48.046;7.642;2023-03-12T14:47:54;3.50;;;1.10;;
2706;SDS011;7819;48.046;7.642;2023-03-12T14:50:27;3.57;;;1.33;;
2706;SDS011;7819;48.046;7.642;2023-03-12T14:52:53;3.83;;;1.13;;
2706;SDS011;7819;48.046;7.642;2023-03-12T14:55:20;3.40;;;1.23;;
2706;SDS011;7819;48.046;7.642;2023-03-12T14:57:46;3.80;;;1.60;;
2706;SDS011;7819;48.046;7.642;2023-03-12T15:00:25;3.00;;;1.00;;
2706;SDS011;7819;48.046;7.642;2023-03-12T15:02:51;3.73;;;1.33;;
2706;SDS011;7819;48.046;7.642;2023-03-12T15:05:17;2.80;;;1.10;;
2706;SDS011;7819;48.046;7.642;2023-03-12T15:07:44;4.17;;;1.27;;
2706;SDS011;7819;48.046;7.642;2023-03-12T15:12:44;3.40;;;1.03;;
2706;SDS011;7819;48.046;7.642;2023-03-12T15:15:16;4.87;;;1.50;;
2706;SDS011;7819;48.046;7.642;2023-03-12T15:17:47;3.87;;;1.37;;
2706;SDS011;7819;48.046;7.642;2023-03-12T15:20:13;3.00;;;1.20;;
2706;SDS011;7819;48.046;7.642;2023-03-12T15:22:39;5.77;;;1.17;;
2706;SDS011;7819;48.046;7.642;2023-03-12T15:25:24;7.53;;;1.53;;
2706;SDS011;7819;48.046;7.642;2023-03-12T15:30:34;3.10;;;1.07;;
2706;SDS011;7819;48.046;7.642;2023-03-12T15:35:41;5.33;;;1.33;;
2706;SDS011;7819;48.046;7.642;2023-03-12T15:38:14;3.53;;;1.27;;
2706;SDS011;7819;48.046;7.642;2023-03-12T15:40:39;5.00;;;1.50;;
2706;SDS011;7819;48.046;7.642;2023-03-12T15:43:04;3.97;;;1.23;;
2706;SDS011;7819;48.046;7.642;2023-03-12T15:45:35;6.43;;;2.30;;
2706;SDS011;7819;48.046;7.642;2023-03-12T15:48:01;3.87;;;2.00;;
2706;SDS011;7819;48.046;7.642;2023-03-12T15:50:36;5.77;;;1.27;;
2706;SDS011;7819;48.046;7.642;2023-03-12T15:55:35;5.80;;;1.67;;
2706;SDS011;7819;48.046;7.642;2023-03-12T15:58:00;3.73;;;1.17;;
2706;SDS011;7819;48.046;7.642;2023-03-12T16:00:30;3.80;;;1.30;;
2706;SDS011;7819;48.046;7.642;2023-03-12T16:02:56;3.10;;;1.33;;
2706;SDS011;7819;48.046;7.642;2023-03-12T16:05:24;4.73;;;1.80;;
2706;SDS011;7819;48.046;7.642;2023-03-12T16:07:50;4.40;;;1.87;;
2706;SDS011;7819;48.046;7.642;2023-03-12T16:10:16;3.03;;;1.30;;
2706;SDS011;7819;48.046;7.642;2023-03-12T16:12:42;5.20;;;1.73;;
2706;SDS011;7819;48.046;7.642;2023-03-12T16:15:19;3.70;;;1.70;;
2706;SDS011;7819;48.046;7.642;2023-03-12T16:17:46;5.40;;;1.50;;
2706;SDS011;7819;48.046;7.642;2023-03-12T16:20:12;3.00;;;1.13;;
2706;SDS011;7819;48.046;7.642;2023-03-12T16:22:38;4.20;;;1.20;;
2706;SDS011;7819;48.046;7.642;2023-03-12T16:25:03;5.20;;;1.43;;
2706;SDS011;7819;48.046;7.642;2023-03-12T16:27:29;3.97;;;1.80;;
2706;SDS011;7819;48.046;7.642;2023-03-12T16:29:54;4.80;;;1.93;;
2706;SDS011;7819;48.046;7.642;2023-03-12T16:32:19;7.63;;;1.90;;
2706;SDS011;7819;48.046;7.642;2023-03-12T16:34:44;4.07;;;1.40;;
2706;SDS011;7819;48.046;7.642;2023-03-12T16:37:10;4.03;;;1.70;;
2706;SDS011;7819;48.046;7.642;2023-03-12T16:39:36;4.53;;;1.77;;
2706;SDS011;7819;48.046;7.642;2023-03-12T16:42:01;5.37;;;1.40;;
2706;SDS011;7819;48.046;7.642;2023-03-12T16:44:28;5.63;;;1.37;;
2706;SDS011;7819;48.046;7.642;2023-03-12T16:46:54;5.40;;;1.70;;
2706;SDS011;7819;48.046;7.642;2023-03-12T16:49:19;6.80;;;1.83;;
2706;SDS011;7819;48.046;7.642;2023-03-12T16:51:45;2.70;;;1.43;;
2706;SDS011;7819;48.046;7.642;2023-03-12T16:54:10;4.93;;;1.23;;
2706;SDS011;7819;48.046;7.642;2023-03-12T16:56:36;5.77;;;1.40;;
2706;SDS011;7819;48.046;7.642;2023-03-12T16:59:05;7.10;;;2.37;;
2706;SDS011;7819;48.046;7.642;2023-03-12T17:01:31;3.20;;;1.90;;
2706;SDS011;7819;48.046;7.642;2023-03-12T17:03:56;4.00;;;1.87;;
2706;SDS011;7819;48.046;7.642;2023-03-12T17:06:24;5.47;;;1.53;;
2706;SDS011;7819;48.046;7.642;2023-03-12T17:08:50;4.80;;;2.10;;
2706;SDS011;7819;48.046;7.642;2023-03-12T17:11:16;5.57;;;2.30;;
2706;SDS011;7819;48.046;7.642;2023-03-12T17:13:43;3.97;;;1.30;;
2706;SDS011;7819;48.046;7.642;2023-03-12T17:16:10;3.87;;;1.20;;